sensor_id;sensor_type;location;lat;lon;timestamp;P1;durP1;ratioP1;P2;durP2;ratioP2
61897;SDS011;47850;50.274;18.908;2022-12-26T00:01:38;58.40;;;28.00;;
61897;SDS011;47850;50.274;18.908;2022-12-26T00:04:06;49.80;;;22.30;;
61897;SDS011;47850;50.274;18.908;2022-12-26T00:06:32;60.10;;;24.70;;
61897;SDS011;47850;50.274;18.908;2022-12-26T00:08:58;50.10;;;24.50;;
61897;SDS011;47850;50.274;18.908;2022-12-26T00:11:26;43.00;;;19.20;;
61897;SDS011;47850;50.274;18.908;2022-12-26T00:13:59;38.40;;;17.70;;
61897;SDS011;47850;50.274;18.908;2022-12-26T00:16:51;46.40;;;22.70;;
61897;SDS011;47850;50.274;18.908;2022-12-26T00:19:16;35.80;;;16.70;;
61897;SDS011;47850;50.274;18.908;2022-12-26T00:21:42;48.00;;;22.70;;
61897;SDS011;47850;50.274;18.908;2022-12-26T00:24:08;49.70;;;23.60;;
61897;SDS011;47850;50.274;18.908;2022-12-26T00:26:36;44.80;;;22.00;;
61897;SDS011;47850;50.274;18.908;2022-12-26T00:29:02;40.50;;;19.30;;
61897;SDS011;47850;50.274;18.908;2022-12-26T00:31:29;38.80;;;19.70;;
61897;SDS011;47850;50.274;18.908;2022-12-26T00:33:56;49.10;;;24.20;;
61897;SDS011;47850;50.274;18.908;2022-12-26T00:36:24;43.20;;;21.00;;
61897;SDS011;47850;50.274;18.908;2022-12-26T00:38:52;46.70;;;23.10;;
61897;SDS011;47850;50.274;18.908;2022-12-26T00:41:18;44.30;;;21.90;;
61897;SDS011;47850;50.274;18.908;2022-12-26T00:43:45;44.70;;;21.80;;
61897;SDS011;47850;50.274;18.908;2022-12-26T00:46:11;50.50;;;25.10;;
61897;SDS011;47850;50.274;18.908;2022-12-26T00:48:37;49.50;;;22.90;;
61897;SDS011;47850;50.274;18.908;2022-12-26T00:51:03;42.90;;;22.50;;
61897;SDS011;47850;50.274;18.908;2022-12-26T00:53:29;46.80;;;23.60;;
61897;SDS011;47850;50.274;18.908;2022-12-26T00:55:56;50.90;;;25.70;;
61897;SDS011;47850;50.274;18.908;2022-12-26T00:58:21;45.40;;;19.50;;
61897;SDS011;47850;50.274;18.908;2022-12-26T01:00:49;53.90;;;26.30;;
61897;SDS011;47850;50.274;18.908;2022-12-26T01:03:15;50.00;;;24.70;;
61897;SDS011;47850;50.274;18.908;2022-12-26T01:05:42;55.00;;;27.00;;
61897;SDS011;47850;50.274;18.908;2022-12-26T01:08:09;55.60;;;29.00;;
61897;SDS011;47850;50.274;18.908;2022-12-26T01:10:35;58.40;;;30.00;;
61897;SDS011;47850;50.274;18.908;2022-12-26T01:13:01;55.90;;;28.90;;
61897;SDS011;47850;50.274;18.908;2022-12-26T01:15:27;64.20;;;32.80;;
61897;SDS011;47850;50.274;18.908;2022-12-26T01:17:52;50.90;;;25.60;;
61897;SDS011;47850;50.274;18.908;2022-12-26T01:20:18;47.70;;;24.40;;
61897;SDS011;47850;50.274;18.908;2022-12-26T01:22:43;43.60;;;22.90;;
61897;SDS011;47850;50.274;18.908;2022-12-26T01:25:09;44.90;;;22.40;;
61897;SDS011;47850;50.274;18.908;2022-12-26T01:27:36;38.60;;;19.90;;
61897;SDS011;47850;50.274;18.908;2022-12-26T01:30:02;50.80;;;23.70;;
61897;SDS011;47850;50.274;18.908;2022-12-26T01:32:28;42.30;;;22.20;;
61897;SDS011;47850;50.274;18.908;2022-12-26T01:34:53;48.30;;;23.80;;
61897;SDS011;47850;50.274;18.908;2022-12-26T01:37:19;53.10;;;24.90;;
61897;SDS011;47850;50.274;18.908;2022-12-26T01:39:47;48.50;;;24.60;;
61897;SDS011;47850;50.274;18.908;2022-12-26T01:42:14;42.80;;;21.40;;
61897;SDS011;47850;50.274;18.908;2022-12-26T01:47:46;48.60;;;23.50;;
61897;SDS011;47850;50.274;18.908;2022-12-26T01:53:33;46.40;;;22.50;;
61897;SDS011;47850;50.274;18.908;2022-12-26T01:56:07;42.80;;;22.00;;
61897;SDS011;47850;50.274;18.908;2022-12-26T01:58:49;49.20;;;23.40;;
61897;SDS011;47850;50.274;18.908;2022-12-26T02:01:26;58.00;;;27.00;;
61897;SDS011;47850;50.274;18.908;2022-12-26T02:03:57;52.10;;;26.40;;
61897;SDS011;47850;50.274;18.908;2022-12-26T02:06:44;62.40;;;29.30;;
61897;SDS011;47850;50.274;18.908;2022-12-26T02:09:11;45.40;;;20.80;;
61897;SDS011;47850;50.274;18.908;2022-12-26T02:11:38;51.00;;;24.90;;
61897;SDS011;47850;50.274;18.908;2022-12-26T02:14:08;45.10;;;23.90;;
61897;SDS011;47850;50.274;18.908;2022-12-26T02:16:35;55.30;;;26.90;;
61897;SDS011;47850;50.274;18.908;2022-12-26T02:19:04;48.40;;;23.20;;
61897;SDS011;47850;50.274;18.908;2022-12-26T02:24:26;47.80;;;26.20;;
61897;SDS011;47850;50.274;18.908;2022-12-26T02:41:18;50.00;;;25.80;;
61897;SDS011;47850;50.274;18.908;2022-12-26T02:43:57;42.70;;;20.60;;
61897;SDS011;47850;50.274;18.908;2022-12-26T02:53:01;45.50;;;23.40;;
61897;SDS011;47850;50.274;18.908;2022-12-26T02:55:54;38.30;;;20.10;;
61897;SDS011;47850;50.274;18.908;2022-12-26T02:58:58;52.20;;;24.90;;
61897;SDS011;47850;50.274;18.908;2022-12-26T03:01:48;47.50;;;22.80;;
61897;SDS011;47850;50.274;18.908;2022-12-26T03:04:38;61.00;;;30.70;;
61897;SDS011;47850;50.274;18.908;2022-12-26T03:07:26;48.70;;;25.90;;
61897;SDS011;47850;50.274;18.908;2022-12-26T03:13:02;41.30;;;20.50;;
61897;SDS011;47850;50.274;18.908;2022-12-26T03:15:55;43.80;;;19.80;;
61897;SDS011;47850;50.274;18.908;2022-12-26T03:18:52;38.80;;;19.30;;
61897;SDS011;47850;50.274;18.908;2022-12-26T03:21:23;41.10;;;21.30;;
61897;SDS011;47850;50.274;18.908;2022-12-26T03:23:52;32.60;;;16.80;;
61897;SDS011;47850;50.274;18.908;2022-12-26T03:26:22;49.40;;;23.30;;
61897;SDS011;47850;50.274;18.908;2022-12-26T03:29:16;42.70;;;22.00;;
61897;SDS011;47850;50.274;18.908;2022-12-26T03:32:19;38.30;;;17.80;;
61897;SDS011;47850;50.274;18.908;2022-12-26T03:34:45;43.60;;;21.90;;
61897;SDS011;47850;50.274;18.908;2022-12-26T03:40:38;36.40;;;18.10;;
61897;SDS011;47850;50.274;18.908;2022-12-26T03:44:15;38.60;;;19.30;;
61897;SDS011;47850;50.274;18.908;2022-12-26T03:53:34;37.40;;;18.80;;
61897;SDS011;47850;50.274;18.908;2022-12-26T03:56:24;48.50;;;23.90;;
61897;SDS011;47850;50.274;18.908;2022-12-26T03:59:22;44.50;;;22.70;;
61897;SDS011;47850;50.274;18.908;2022-12-26T04:02:12;41.90;;;21.00;;
61897;SDS011;47850;50.274;18.908;2022-12-26T04:04:58;46.10;;;22.40;;
61897;SDS011;47850;50.274;18.908;2022-12-26T04:07:49;34.70;;;17.70;;
61897;SDS011;47850;50.274;18.908;2022-12-26T04:10:46;39.60;;;18.70;;
61897;SDS011;47850;50.274;18.908;2022-12-26T04:17:04;36.00;;;16.40;;
61897;SDS011;47850;50.274;18.908;2022-12-26T04:22:29;32.90;;;16.40;;
61897;SDS011;47850;50.274;18.908;2022-12-26T04:25:24;34.50;;;16.70;;
61897;SDS011;47850;50.274;18.908;2022-12-26T04:28:13;38.70;;;21.40;;
61897;SDS011;47850;50.274;18.908;2022-12-26T04:30:59;34.50;;;17.60;;
61897;SDS011;47850;50.274;18.908;2022-12-26T04:33:51;39.70;;;20.20;;
61897;SDS011;47850;50.274;18.908;2022-12-26T04:36:42;43.60;;;21.50;;
61897;SDS011;47850;50.274;18.908;2022-12-26T04:39:33;35.50;;;17.90;;
61897;SDS011;47850;50.274;18.908;2022-12-26T04:42:19;45.60;;;23.90;;
61897;SDS011;47850;50.274;18.908;2022-12-26T04:45:06;42.00;;;22.10;;
61897;SDS011;47850;50.274;18.908;2022-12-26T04:47:33;36.20;;;20.00;;
61897;SDS011;47850;50.274;18.908;2022-12-26T04:49:59;30.10;;;16.90;;
61897;SDS011;47850;50.274;18.908;2022-12-26T04:52:36;27.10;;;15.90;;
61897;SDS011;47850;50.274;18.908;2022-12-26T04:55:26;29.50;;;15.20;;
61897;SDS011;47850;50.274;18.908;2022-12-26T04:57:53;35.80;;;18.60;;
61897;SDS011;47850;50.274;18.908;2022-12-26T05:00:19;31.30;;;17.20;;
61897;SDS011;47850;50.274;18.908;2022-12-26T05:02:45;30.90;;;16.60;;
61897;SDS011;47850;50.274;18.908;2022-12-26T05:05:31;22.30;;;9.90;;
61897;SDS011;47850;50.274;18.908;2022-12-26T05:08:23;24.20;;;12.70;;
61897;SDS011;47850;50.274;18.908;2022-12-26T05:11:13;22.20;;;10.70;;
61897;SDS011;47850;50.274;18.908;2022-12-26T05:13:39;24.80;;;11.80;;
61897;SDS011;47850;50.274;18.908;2022-12-26T05:16:04;22.60;;;12.30;;
61897;SDS011;47850;50.274;18.908;2022-12-26T05:18:49;19.40;;;10.70;;
61897;SDS011;47850;50.274;18.908;2022-12-26T05:21:33;21.90;;;10.90;;
61897;SDS011;47850;50.274;18.908;2022-12-26T05:24:18;18.00;;;8.70;;
61897;SDS011;47850;50.274;18.908;2022-12-26T05:27:03;17.80;;;10.80;;
61897;SDS011;47850;50.274;18.908;2022-12-26T05:29:47;18.60;;;9.30;;
61897;SDS011;47850;50.274;18.908;2022-12-26T05:32:13;19.90;;;10.40;;
61897;SDS011;47850;50.274;18.908;2022-12-26T05:34:38;18.00;;;9.30;;
61897;SDS011;47850;50.274;18.908;2022-12-26T05:37:04;18.50;;;9.90;;
61897;SDS011;47850;50.274;18.908;2022-12-26T05:39:29;16.10;;;9.70;;
61897;SDS011;47850;50.274;18.908;2022-12-26T05:41:55;15.60;;;8.70;;
61897;SDS011;47850;50.274;18.908;2022-12-26T05:44:20;17.70;;;10.50;;
61897;SDS011;47850;50.274;18.908;2022-12-26T05:46:46;14.60;;;9.20;;
61897;SDS011;47850;50.274;18.908;2022-12-26T05:49:12;16.60;;;10.40;;
61897;SDS011;47850;50.274;18.908;2022-12-26T05:51:37;14.50;;;7.70;;
61897;SDS011;47850;50.274;18.908;2022-12-26T05:54:04;16.70;;;9.20;;
61897;SDS011;47850;50.274;18.908;2022-12-26T05:56:29;10.50;;;5.90;;
61897;SDS011;47850;50.274;18.908;2022-12-26T05:58:56;14.20;;;7.80;;
61897;SDS011;47850;50.274;18.908;2022-12-26T06:01:23;13.90;;;7.30;;
61897;SDS011;47850;50.274;18.908;2022-12-26T06:03:51;15.00;;;7.30;;
61897;SDS011;47850;50.274;18.908;2022-12-26T06:06:19;14.80;;;8.40;;
61897;SDS011;47850;50.274;18.908;2022-12-26T06:08:49;16.60;;;8.40;;
61897;SDS011;47850;50.274;18.908;2022-12-26T06:11:15;13.80;;;7.70;;
61897;SDS011;47850;50.274;18.908;2022-12-26T06:13:42;14.70;;;8.90;;
61897;SDS011;47850;50.274;18.908;2022-12-26T06:16:09;13.20;;;7.30;;
61897;SDS011;47850;50.274;18.908;2022-12-26T06:18:36;12.60;;;6.30;;
61897;SDS011;47850;50.274;18.908;2022-12-26T06:21:06;14.60;;;9.30;;
61897;SDS011;47850;50.274;18.908;2022-12-26T06:23:33;11.00;;;6.70;;
61897;SDS011;47850;50.274;18.908;2022-12-26T06:26:00;12.70;;;6.90;;
61897;SDS011;47850;50.274;18.908;2022-12-26T06:28:25;15.80;;;9.50;;
61897;SDS011;47850;50.274;18.908;2022-12-26T06:30:52;16.20;;;8.50;;
61897;SDS011;47850;50.274;18.908;2022-12-26T06:33:18;12.30;;;6.70;;
61897;SDS011;47850;50.274;18.908;2022-12-26T06:35:44;16.60;;;9.20;;
61897;SDS011;47850;50.274;18.908;2022-12-26T06:38:10;17.80;;;11.20;;
61897;SDS011;47850;50.274;18.908;2022-12-26T06:40:37;11.10;;;6.50;;
61897;SDS011;47850;50.274;18.908;2022-12-26T06:43:06;14.00;;;7.10;;
61897;SDS011;47850;50.274;18.908;2022-12-26T06:45:33;15.20;;;8.60;;
61897;SDS011;47850;50.274;18.908;2022-12-26T06:47:59;13.60;;;7.20;;
61897;SDS011;47850;50.274;18.908;2022-12-26T06:50:24;12.40;;;8.00;;
61897;SDS011;47850;50.274;18.908;2022-12-26T06:52:51;14.60;;;8.40;;
61897;SDS011;47850;50.274;18.908;2022-12-26T06:55:16;13.80;;;7.90;;
61897;SDS011;47850;50.274;18.908;2022-12-26T06:57:42;14.30;;;8.50;;
61897;SDS011;47850;50.274;18.908;2022-12-26T07:00:07;11.70;;;7.20;;
61897;SDS011;47850;50.274;18.908;2022-12-26T07:02:34;12.70;;;6.70;;
61897;SDS011;47850;50.274;18.908;2022-12-26T07:04:59;17.60;;;9.10;;
61897;SDS011;47850;50.274;18.908;2022-12-26T07:07:25;10.30;;;6.70;;
61897;SDS011;47850;50.274;18.908;2022-12-26T07:09:50;13.90;;;7.60;;
61897;SDS011;47850;50.274;18.908;2022-12-26T07:12:16;15.30;;;8.80;;
61897;SDS011;47850;50.274;18.908;2022-12-26T07:14:45;15.00;;;9.10;;
61897;SDS011;47850;50.274;18.908;2022-12-26T07:17:10;16.00;;;9.10;;
61897;SDS011;47850;50.274;18.908;2022-12-26T07:19:36;15.20;;;9.50;;
61897;SDS011;47850;50.274;18.908;2022-12-26T07:22:01;10.30;;;5.90;;
61897;SDS011;47850;50.274;18.908;2022-12-26T07:24:27;15.60;;;9.30;;
61897;SDS011;47850;50.274;18.908;2022-12-26T07:26:52;17.50;;;9.20;;
61897;SDS011;47850;50.274;18.908;2022-12-26T07:29:18;16.00;;;8.00;;
61897;SDS011;47850;50.274;18.908;2022-12-26T07:31:43;18.80;;;10.30;;
61897;SDS011;47850;50.274;18.908;2022-12-26T07:34:09;15.00;;;8.60;;
61897;SDS011;47850;50.274;18.908;2022-12-26T07:36:34;11.90;;;7.40;;
61897;SDS011;47850;50.274;18.908;2022-12-26T07:39:00;12.60;;;6.90;;
61897;SDS011;47850;50.274;18.908;2022-12-26T07:41:25;17.70;;;9.20;;
61897;SDS011;47850;50.274;18.908;2022-12-26T07:44:10;13.60;;;8.00;;
61897;SDS011;47850;50.274;18.908;2022-12-26T07:46:36;14.20;;;7.80;;
61897;SDS011;47850;50.274;18.908;2022-12-26T07:49:02;14.90;;;9.30;;
61897;SDS011;47850;50.274;18.908;2022-12-26T07:51:27;12.90;;;7.30;;
61897;SDS011;47850;50.274;18.908;2022-12-26T07:53:53;14.50;;;8.90;;
61897;SDS011;47850;50.274;18.908;2022-12-26T07:56:18;12.60;;;6.90;;
61897;SDS011;47850;50.274;18.908;2022-12-26T07:58:47;16.00;;;9.20;;
61897;SDS011;47850;50.274;18.908;2022-12-26T08:01:13;12.80;;;8.60;;
61897;SDS011;47850;50.274;18.908;2022-12-26T08:03:40;17.10;;;9.50;;
61897;SDS011;47850;50.274;18.908;2022-12-26T08:06:08;12.10;;;6.80;;
61897;SDS011;47850;50.274;18.908;2022-12-26T08:08:34;21.40;;;9.60;;
61897;SDS011;47850;50.274;18.908;2022-12-26T08:11:02;17.50;;;8.80;;
61897;SDS011;47850;50.274;18.908;2022-12-26T08:13:29;19.90;;;11.30;;
61897;SDS011;47850;50.274;18.908;2022-12-26T08:15:56;14.70;;;9.50;;
61897;SDS011;47850;50.274;18.908;2022-12-26T08:18:22;19.60;;;10.90;;
61897;SDS011;47850;50.274;18.908;2022-12-26T08:20:49;17.20;;;10.50;;
61897;SDS011;47850;50.274;18.908;2022-12-26T08:23:14;16.10;;;9.50;;
61897;SDS011;47850;50.274;18.908;2022-12-26T08:25:40;17.20;;;9.50;;
61897;SDS011;47850;50.274;18.908;2022-12-26T08:28:05;14.30;;;9.10;;
61897;SDS011;47850;50.274;18.908;2022-12-26T08:30:31;16.90;;;11.60;;
61897;SDS011;47850;50.274;18.908;2022-12-26T08:32:56;17.60;;;11.00;;
61897;SDS011;47850;50.274;18.908;2022-12-26T08:35:22;23.70;;;12.00;;
61897;SDS011;47850;50.274;18.908;2022-12-26T08:37:48;17.80;;;10.50;;
61897;SDS011;47850;50.274;18.908;2022-12-26T08:40:13;16.10;;;8.80;;
61897;SDS011;47850;50.274;18.908;2022-12-26T08:42:39;14.50;;;8.70;;
61897;SDS011;47850;50.274;18.908;2022-12-26T08:45:05;18.60;;;10.20;;
61897;SDS011;47850;50.274;18.908;2022-12-26T08:47:30;11.00;;;6.90;;
61897;SDS011;47850;50.274;18.908;2022-12-26T08:49:56;15.70;;;9.40;;
61897;SDS011;47850;50.274;18.908;2022-12-26T08:52:21;16.40;;;10.40;;
61897;SDS011;47850;50.274;18.908;2022-12-26T08:54:47;16.60;;;9.70;;
61897;SDS011;47850;50.274;18.908;2022-12-26T08:57:12;17.80;;;9.10;;
61897;SDS011;47850;50.274;18.908;2022-12-26T08:59:38;13.10;;;6.60;;
61897;SDS011;47850;50.274;18.908;2022-12-26T09:02:03;13.50;;;7.70;;
61897;SDS011;47850;50.274;18.908;2022-12-26T09:04:29;14.00;;;9.20;;
61897;SDS011;47850;50.274;18.908;2022-12-26T09:06:54;13.00;;;8.00;;
61897;SDS011;47850;50.274;18.908;2022-12-26T09:09:20;15.80;;;8.90;;
61897;SDS011;47850;50.274;18.908;2022-12-26T09:11:46;15.50;;;8.40;;
61897;SDS011;47850;50.274;18.908;2022-12-26T09:14:11;14.60;;;9.30;;
61897;SDS011;47850;50.274;18.908;2022-12-26T09:16:38;17.40;;;9.70;;
61897;SDS011;47850;50.274;18.908;2022-12-26T09:19:11;20.30;;;11.80;;
61897;SDS011;47850;50.274;18.908;2022-12-26T09:21:38;18.00;;;10.30;;
61897;SDS011;47850;50.274;18.908;2022-12-26T09:24:05;19.00;;;12.10;;
61897;SDS011;47850;50.274;18.908;2022-12-26T09:26:34;18.20;;;10.60;;
61897;SDS011;47850;50.274;18.908;2022-12-26T09:29:00;20.30;;;9.20;;
61897;SDS011;47850;50.274;18.908;2022-12-26T09:31:27;18.10;;;11.20;;
61897;SDS011;47850;50.274;18.908;2022-12-26T09:33:55;16.80;;;11.40;;
61897;SDS011;47850;50.274;18.908;2022-12-26T09:36:24;20.80;;;12.60;;
61897;SDS011;47850;50.274;18.908;2022-12-26T09:38:53;17.60;;;10.30;;
61897;SDS011;47850;50.274;18.908;2022-12-26T09:52:36;22.30;;;10.90;;
61897;SDS011;47850;50.274;18.908;2022-12-26T09:55:14;25.40;;;12.50;;
61897;SDS011;47850;50.274;18.908;2022-12-26T09:57:43;17.60;;;9.60;;
61897;SDS011;47850;50.274;18.908;2022-12-26T10:00:16;24.40;;;11.00;;
61897;SDS011;47850;50.274;18.908;2022-12-26T10:02:57;18.60;;;11.70;;
61897;SDS011;47850;50.274;18.908;2022-12-26T10:05:25;21.20;;;12.00;;
61897;SDS011;47850;50.274;18.908;2022-12-26T10:11:00;21.10;;;13.00;;
61897;SDS011;47850;50.274;18.908;2022-12-26T10:16:18;24.80;;;15.10;;
61897;SDS011;47850;50.274;18.908;2022-12-26T10:24:29;19.50;;;12.00;;
61897;SDS011;47850;50.274;18.908;2022-12-26T10:27:02;20.80;;;10.10;;
61897;SDS011;47850;50.274;18.908;2022-12-26T10:29:39;21.30;;;11.90;;
61897;SDS011;47850;50.274;18.908;2022-12-26T10:32:11;17.50;;;9.60;;
61897;SDS011;47850;50.274;18.908;2022-12-26T10:34:42;13.10;;;7.60;;
61897;SDS011;47850;50.274;18.908;2022-12-26T10:39:47;22.60;;;12.00;;
61897;SDS011;47850;50.274;18.908;2022-12-26T10:42:29;19.90;;;11.00;;
61897;SDS011;47850;50.274;18.908;2022-12-26T10:45:15;17.30;;;9.50;;
61897;SDS011;47850;50.274;18.908;2022-12-26T10:47:45;15.90;;;8.70;;
61897;SDS011;47850;50.274;18.908;2022-12-26T10:50:16;18.00;;;9.80;;
61897;SDS011;47850;50.274;18.908;2022-12-26T10:52:44;19.80;;;10.60;;
61897;SDS011;47850;50.274;18.908;2022-12-26T10:55:13;19.10;;;12.00;;
61897;SDS011;47850;50.274;18.908;2022-12-26T10:57:41;20.90;;;13.20;;
61897;SDS011;47850;50.274;18.908;2022-12-26T11:00:17;14.20;;;8.40;;
61897;SDS011;47850;50.274;18.908;2022-12-26T11:03:03;16.20;;;9.60;;
61897;SDS011;47850;50.274;18.908;2022-12-26T11:05:30;18.00;;;10.00;;
61897;SDS011;47850;50.274;18.908;2022-12-26T11:08:32;21.20;;;12.10;;
61897;SDS011;47850;50.274;18.908;2022-12-26T11:13:30;21.50;;;11.90;;
61897;SDS011;47850;50.274;18.908;2022-12-26T11:16:01;18.10;;;10.00;;
61897;SDS011;47850;50.274;18.908;2022-12-26T11:18:34;20.40;;;11.20;;
61897;SDS011;47850;50.274;18.908;2022-12-26T11:21:21;20.60;;;11.80;;
61897;SDS011;47850;50.274;18.908;2022-12-26T11:24:09;15.40;;;8.80;;
61897;SDS011;47850;50.274;18.908;2022-12-26T11:26:40;20.10;;;10.10;;
61897;SDS011;47850;50.274;18.908;2022-12-26T11:29:13;20.80;;;11.80;;
61897;SDS011;47850;50.274;18.908;2022-12-26T11:32:01;19.40;;;10.80;;
61897;SDS011;47850;50.274;18.908;2022-12-26T11:36:58;21.20;;;12.10;;
61897;SDS011;47850;50.274;18.908;2022-12-26T11:39:29;19.30;;;11.40;;
61897;SDS011;47850;50.274;18.908;2022-12-26T11:41:58;22.00;;;12.70;;
61897;SDS011;47850;50.274;18.908;2022-12-26T11:44:29;20.90;;;11.80;;
61897;SDS011;47850;50.274;18.908;2022-12-26T11:52:40;21.00;;;11.30;;
61897;SDS011;47850;50.274;18.908;2022-12-26T11:55:25;18.70;;;10.80;;
61897;SDS011;47850;50.274;18.908;2022-12-26T11:58:00;22.70;;;10.40;;
61897;SDS011;47850;50.274;18.908;2022-12-26T12:03:19;14.40;;;8.10;;
61897;SDS011;47850;50.274;18.908;2022-12-26T12:06:00;11.60;;;6.80;;
61897;SDS011;47850;50.274;18.908;2022-12-26T12:14:27;15.30;;;8.30;;
61897;SDS011;47850;50.274;18.908;2022-12-26T12:31:23;20.50;;;9.60;;
61897;SDS011;47850;50.274;18.908;2022-12-26T12:36:38;13.90;;;8.40;;
61897;SDS011;47850;50.274;18.908;2022-12-26T12:39:23;13.60;;;8.60;;
61897;SDS011;47850;50.274;18.908;2022-12-26T12:42:16;13.60;;;7.70;;
61897;SDS011;47850;50.274;18.908;2022-12-26T13:01:17;17.20;;;9.00;;
61897;SDS011;47850;50.274;18.908;2022-12-26T13:04:01;21.60;;;10.30;;
61897;SDS011;47850;50.274;18.908;2022-12-26T13:06:41;21.00;;;11.30;;
61897;SDS011;47850;50.274;18.908;2022-12-26T13:09:21;15.90;;;8.20;;
61897;SDS011;47850;50.274;18.908;2022-12-26T13:11:53;20.40;;;10.30;;
61897;SDS011;47850;50.274;18.908;2022-12-26T13:14:28;19.90;;;10.50;;
61897;SDS011;47850;50.274;18.908;2022-12-26T13:17:06;18.40;;;10.40;;
61897;SDS011;47850;50.274;18.908;2022-12-26T13:19:43;17.10;;;7.40;;
61897;SDS011;47850;50.274;18.908;2022-12-26T13:22:13;20.40;;;10.80;;
61897;SDS011;47850;50.274;18.908;2022-12-26T13:24:47;20.50;;;9.90;;
61897;SDS011;47850;50.274;18.908;2022-12-26T13:29:53;14.60;;;8.50;;
61897;SDS011;47850;50.274;18.908;2022-12-26T13:32:20;21.60;;;11.10;;
61897;SDS011;47850;50.274;18.908;2022-12-26T13:34:57;19.70;;;10.30;;
61897;SDS011;47850;50.274;18.908;2022-12-26T13:42:46;18.50;;;9.90;;
61897;SDS011;47850;50.274;18.908;2022-12-26T13:45:47;19.10;;;8.90;;
61897;SDS011;47850;50.274;18.908;2022-12-26T13:51:02;17.60;;;9.50;;
61897;SDS011;47850;50.274;18.908;2022-12-26T13:53:33;16.90;;;8.80;;
61897;SDS011;47850;50.274;18.908;2022-12-26T13:56:53;18.10;;;8.40;;
61897;SDS011;47850;50.274;18.908;2022-12-26T13:58:53;18.00;;;9.40;;
61897;SDS011;47850;50.274;18.908;2022-12-26T14:06:43;17.60;;;8.50;;
61897;SDS011;47850;50.274;18.908;2022-12-26T14:12:12;16.90;;;8.90;;
61897;SDS011;47850;50.274;18.908;2022-12-26T14:14:47;18.40;;;9.50;;
61897;SDS011;47850;50.274;18.908;2022-12-26T14:17:35;17.20;;;9.20;;
61897;SDS011;47850;50.274;18.908;2022-12-26T14:20:17;13.80;;;7.70;;
61897;SDS011;47850;50.274;18.908;2022-12-26T14:26:16;15.00;;;7.80;;
61897;SDS011;47850;50.274;18.908;2022-12-26T14:29:08;17.50;;;9.00;;
61897;SDS011;47850;50.274;18.908;2022-12-26T14:37:30;15.60;;;9.10;;
61897;SDS011;47850;50.274;18.908;2022-12-26T14:40:06;14.40;;;8.00;;
61897;SDS011;47850;50.274;18.908;2022-12-26T14:50:43;18.00;;;9.30;;
61897;SDS011;47850;50.274;18.908;2022-12-26T14:58:41;13.30;;;6.30;;
61897;SDS011;47850;50.274;18.908;2022-12-26T15:26:40;13.60;;;7.30;;
61897;SDS011;47850;50.274;18.908;2022-12-26T15:35:11;13.30;;;6.60;;
61897;SDS011;47850;50.274;18.908;2022-12-26T15:40:13;15.60;;;8.80;;
61897;SDS011;47850;50.274;18.908;2022-12-26T15:51:46;13.40;;;7.10;;
61897;SDS011;47850;50.274;18.908;2022-12-26T15:54:30;13.90;;;7.40;;
61897;SDS011;47850;50.274;18.908;2022-12-26T15:58:07;16.80;;;9.60;;
61897;SDS011;47850;50.274;18.908;2022-12-26T16:00:19;14.00;;;7.70;;
61897;SDS011;47850;50.274;18.908;2022-12-26T16:02:57;19.20;;;10.30;;
61897;SDS011;47850;50.274;18.908;2022-12-26T16:13:48;17.30;;;8.90;;
61897;SDS011;47850;50.274;18.908;2022-12-26T16:16:35;20.70;;;11.50;;
61897;SDS011;47850;50.274;18.908;2022-12-26T16:19:17;18.10;;;10.50;;
61897;SDS011;47850;50.274;18.908;2022-12-26T16:21:50;18.60;;;10.80;;
61897;SDS011;47850;50.274;18.908;2022-12-26T16:24:43;17.70;;;10.30;;
61897;SDS011;47850;50.274;18.908;2022-12-26T16:27:17;16.30;;;9.40;;
61897;SDS011;47850;50.274;18.908;2022-12-26T16:29:46;19.30;;;10.80;;
61897;SDS011;47850;50.274;18.908;2022-12-26T16:32:18;24.50;;;11.20;;
61897;SDS011;47850;50.274;18.908;2022-12-26T16:34:45;20.70;;;13.30;;
61897;SDS011;47850;50.274;18.908;2022-12-26T16:37:22;15.40;;;9.00;;
61897;SDS011;47850;50.274;18.908;2022-12-26T16:40:13;23.30;;;12.30;;
61897;SDS011;47850;50.274;18.908;2022-12-26T16:42:43;18.90;;;12.10;;
61897;SDS011;47850;50.274;18.908;2022-12-26T16:45:19;20.00;;;11.10;;
61897;SDS011;47850;50.274;18.908;2022-12-26T16:47:46;17.00;;;10.10;;
61897;SDS011;47850;50.274;18.908;2022-12-26T16:50:15;10.90;;;6.70;;
61897;SDS011;47850;50.274;18.908;2022-12-26T16:52:44;12.50;;;6.60;;
61897;SDS011;47850;50.274;18.908;2022-12-26T16:55:23;21.80;;;11.80;;
61897;SDS011;47850;50.274;18.908;2022-12-26T16:57:55;19.40;;;8.40;;
61897;SDS011;47850;50.274;18.908;2022-12-26T17:00:23;12.90;;;8.00;;
61897;SDS011;47850;50.274;18.908;2022-12-26T17:02:51;21.00;;;10.80;;
61897;SDS011;47850;50.274;18.908;2022-12-26T17:05:21;15.20;;;9.10;;
61897;SDS011;47850;50.274;18.908;2022-12-26T17:07:50;19.60;;;11.50;;
61897;SDS011;47850;50.274;18.908;2022-12-26T17:10:24;19.00;;;11.70;;
61897;SDS011;47850;50.274;18.908;2022-12-26T17:12:53;20.80;;;11.10;;
61897;SDS011;47850;50.274;18.908;2022-12-26T17:15:23;17.60;;;10.10;;
61897;SDS011;47850;50.274;18.908;2022-12-26T17:17:52;18.50;;;11.10;;
61897;SDS011;47850;50.274;18.908;2022-12-26T17:22:47;21.10;;;12.30;;
61897;SDS011;47850;50.274;18.908;2022-12-26T17:30:26;20.40;;;12.80;;
61897;SDS011;47850;50.274;18.908;2022-12-26T17:32:54;21.70;;;12.60;;
61897;SDS011;47850;50.274;18.908;2022-12-26T17:35:27;20.30;;;11.50;;
61897;SDS011;47850;50.274;18.908;2022-12-26T17:38:02;18.70;;;10.70;;
61897;SDS011;47850;50.274;18.908;2022-12-26T17:40:34;15.90;;;7.70;;
61897;SDS011;47850;50.274;18.908;2022-12-26T17:43:06;15.20;;;9.00;;
61897;SDS011;47850;50.274;18.908;2022-12-26T17:45:44;15.20;;;9.50;;
61897;SDS011;47850;50.274;18.908;2022-12-26T17:48:10;17.50;;;9.30;;
61897;SDS011;47850;50.274;18.908;2022-12-26T17:50:37;19.40;;;11.00;;
61897;SDS011;47850;50.274;18.908;2022-12-26T17:56:22;18.50;;;10.30;;
61897;SDS011;47850;50.274;18.908;2022-12-26T17:58:48;18.60;;;9.60;;
61897;SDS011;47850;50.274;18.908;2022-12-26T18:01:14;17.60;;;9.60;;
61897;SDS011;47850;50.274;18.908;2022-12-26T18:03:41;17.00;;;10.20;;
61897;SDS011;47850;50.274;18.908;2022-12-26T18:06:09;19.50;;;10.90;;
61897;SDS011;47850;50.274;18.908;2022-12-26T18:08:38;21.20;;;11.10;;
61897;SDS011;47850;50.274;18.908;2022-12-26T18:11:06;11.90;;;6.20;;
61897;SDS011;47850;50.274;18.908;2022-12-26T18:13:34;17.00;;;9.90;;
61897;SDS011;47850;50.274;18.908;2022-12-26T18:16:01;20.00;;;10.80;;
61897;SDS011;47850;50.274;18.908;2022-12-26T18:18:35;13.80;;;8.30;;
61897;SDS011;47850;50.274;18.908;2022-12-26T18:21:06;21.00;;;11.10;;
61897;SDS011;47850;50.274;18.908;2022-12-26T18:23:33;22.50;;;12.00;;
61897;SDS011;47850;50.274;18.908;2022-12-26T18:25:59;20.20;;;11.30;;
61897;SDS011;47850;50.274;18.908;2022-12-26T18:28:27;22.90;;;11.90;;
61897;SDS011;47850;50.274;18.908;2022-12-26T18:30:53;14.70;;;8.70;;
61897;SDS011;47850;50.274;18.908;2022-12-26T18:33:21;20.30;;;10.70;;
61897;SDS011;47850;50.274;18.908;2022-12-26T18:35:46;17.40;;;9.90;;